Pagina principale
METAR-TAF:

METAR-TAF

Aeroporti :

Aeroporto di Torino-Caselle

Torino, Italia

latitudine: 45-13N, longitudine: 007-39E, altezza: 301 m

Osservazione

Il bollettino è stato emesso 14 minuti fa, alle 09:50 UTC
Vento 2 kt da direzioni variabili
Temperature 7°C
Umidità 87%
Pressione 1016 hPa
Visibilità: 3500 m
Nuvoloso ad un'altezza di 3500 ft
foschia

METAR: LIMF 090950Z VRB02KT 3500 BR BKN035 07/05 Q1016

Ora: 11:04 (10:04 UTC)

Previsione

Il bollettino è stato emesso 1 ora e 57 minuti fa, alle 08:07 UTC
Previsione valida dal 09 alle 08 UTC al 10 alle 06 UTC
Vento 4 kt da direzioni variabili
Visibilità: 4000 m
Nuvoloso ad un'altezza di 4500 ft
foschia
Evoluzione graduale
dal 09 alle 09 UTC al 09 alle 11 UTC
Visibilità: 8000 m

TAF: LIMF 090807Z 0908/1006 VRB04KT 4000 BR BKN045 BECMG 0909/0911 8000

Osservazioni e previsioni meteorologiche di più di 4000 aeroporti (messaggi METAR e TAF).

Le stazioni disponibili sono rappresentate dai dischi gialli e rossi sulla carta.

Puntare il mouse per vedere il nome della stazione.

Clicca sopra per visualizzare le osservazioni e previsioni meteorologiche.

Per cambiare la mappa : fare clic sui pulsanti verdi con una croce nera per ingrandire, il pulsante verde con un trattino per diminuire, o sulla freccia verde per le mappe adiacenti.


METAR-TAF: